createdAt,value
2022-10-28T00:01:13.884Z,18.90
2022-10-28T00:03:43.440Z,18.80
2022-10-28T00:06:19.208Z,18.90
2022-10-28T00:08:46.933Z,18.90
2022-10-28T00:11:26.622Z,18.90
2022-10-28T00:13:55.389Z,18.90
2022-10-28T00:16:26.132Z,18.80
2022-10-28T00:18:54.396Z,18.80
2022-10-28T00:21:27.960Z,18.80
2022-10-28T00:23:55.944Z,18.80
2022-10-28T00:26:25.758Z,18.80
2022-10-28T00:29:07.648Z,18.70
2022-10-28T00:31:36.398Z,18.70
2022-10-28T00:34:07.416Z,18.70
2022-10-28T00:36:37.559Z,18.70
2022-10-28T00:39:19.173Z,18.70
2022-10-28T00:42:07.314Z,18.70
2022-10-28T00:44:53.672Z,18.60
2022-10-28T00:47:40.069Z,18.60
2022-10-28T00:50:13.392Z,18.60
2022-10-28T00:52:42.050Z,18.60
2022-10-28T00:55:10.494Z,18.60
2022-10-28T00:57:39.067Z,18.60
2022-10-28T01:00:08.180Z,18.50
2022-10-28T01:02:43.531Z,18.50
2022-10-28T01:05:13.836Z,18.50
2022-10-28T01:07:41.688Z,18.50
2022-10-28T01:10:10.089Z,18.40
2022-10-28T01:12:53.311Z,18.40
2022-10-28T01:15:55.999Z,18.40
2022-10-28T01:18:29.675Z,18.40
2022-10-28T01:21:15.072Z,18.50
2022-10-28T01:23:54.329Z,18.50
2022-10-28T01:26:56.853Z,18.40
2022-10-28T01:29:30.498Z,18.40
2022-10-28T01:32:31.240Z,18.30
2022-10-28T01:35:28.185Z,18.30
2022-10-28T01:37:55.754Z,18.30
2022-10-28T01:40:36.309Z,18.30
2022-10-28T01:43:13.602Z,18.20
2022-10-28T01:45:56.521Z,18.20
2022-10-28T01:48:46.653Z,18.20
2022-10-28T01:51:22.917Z,18.20
2022-10-28T01:53:53.980Z,18.20
2022-10-28T01:56:26.945Z,18.10
2022-10-28T01:58:59.370Z,18.10
2022-10-28T02:01:29.381Z,18.10
2022-10-28T02:03:59.129Z,18.10
2022-10-28T02:06:29.988Z,18.10
2022-10-28T02:09:19.727Z,18.10
2022-10-28T02:12:13.135Z,18.10
2022-10-28T02:15:04.121Z,18.10
2022-10-28T02:17:56.820Z,18.10
2022-10-28T02:21:03.264Z,18.10
2022-10-28T02:23:44.799Z,18.10
2022-10-28T02:26:40.879Z,18.20
2022-10-28T02:29:15.200Z,18.20
2022-10-28T02:31:49.709Z,18.10
2022-10-28T02:34:21.893Z,18.10
2022-10-28T02:36:53.208Z,18.00
2022-10-28T02:39:26.213Z,18.00
2022-10-28T02:41:59.237Z,18.00
2022-10-28T02:44:42.234Z,18.00
2022-10-28T02:47:14.278Z,18.00
2022-10-28T02:49:45.996Z,18.00
2022-10-28T02:52:16.212Z,18.00
2022-10-28T02:54:53.453Z,18.00
2022-10-28T02:57:25.125Z,17.90
2022-10-28T02:59:58.840Z,17.90
2022-10-28T03:02:26.653Z,17.90
2022-10-28T03:04:54.278Z,17.90
2022-10-28T03:07:21.780Z,17.90
2022-10-28T03:09:49.216Z,17.80
2022-10-28T03:12:19.722Z,17.80
2022-10-28T03:14:48.404Z,17.80
2022-10-28T03:17:16.067Z,17.80
2022-10-28T03:19:43.537Z,17.80
2022-10-28T03:22:11.085Z,17.80
2022-10-28T03:24:38.429Z,17.70
2022-10-28T03:27:06.610Z,17.70
2022-10-28T03:29:34.266Z,17.70
2022-10-28T03:32:01.630Z,17.70
2022-10-28T03:34:29.157Z,17.70
2022-10-28T03:36:56.680Z,17.70
2022-10-28T03:39:23.999Z,17.70
2022-10-28T03:41:51.311Z,17.70
2022-10-28T03:44:18.901Z,17.70
2022-10-28T03:46:46.139Z,17.60
2022-10-28T03:49:13.493Z,17.70
2022-10-28T03:51:40.899Z,17.70
2022-10-28T03:54:08.237Z,17.60
2022-10-28T03:56:35.704Z,17.60
2022-10-28T03:59:03.118Z,17.70
2022-10-28T04:01:30.719Z,17.70
2022-10-28T04:03:58.140Z,17.80
2022-10-28T04:06:25.613Z,17.70
2022-10-28T04:08:52.971Z,17.70
2022-10-28T04:11:20.326Z,17.70
2022-10-28T04:13:47.602Z,17.70
2022-10-28T04:16:15.082Z,17.60
2022-10-28T04:18:42.637Z,17.60
2022-10-28T04:21:09.952Z,17.60
2022-10-28T04:23:37.482Z,17.60
2022-10-28T04:26:06.024Z,17.70
2022-10-28T04:28:33.536Z,17.60
2022-10-28T04:31:02.776Z,17.60
2022-10-28T04:33:30.124Z,17.60
2022-10-28T04:35:57.529Z,17.60
2022-10-28T04:41:00.418Z,17.60
2022-10-28T04:43:27.936Z,17.60
2022-10-28T04:45:55.273Z,17.60
2022-10-28T04:48:22.832Z,17.60
2022-10-28T04:50:51.140Z,17.50
2022-10-28T04:53:18.603Z,17.60
2022-10-28T04:55:47.375Z,17.60
2022-10-28T04:58:14.640Z,17.60
2022-10-28T05:00:42.070Z,17.60
2022-10-28T05:03:09.321Z,17.50
2022-10-28T05:05:36.826Z,17.50
2022-10-28T05:08:04.109Z,17.50
2022-10-28T05:10:32.117Z,17.50
2022-10-28T05:12:59.735Z,17.50
2022-10-28T05:15:27.339Z,17.50
2022-10-28T05:17:55.260Z,17.50
2022-10-28T05:20:31.599Z,17.50
2022-10-28T05:22:59.239Z,17.60
2022-10-28T05:25:28.021Z,17.60
2022-10-28T05:28:00.174Z,17.60
2022-10-28T05:30:28.749Z,17.60
2022-10-28T05:33:01.690Z,17.60
2022-10-28T05:35:30.469Z,17.60
2022-10-28T05:37:57.927Z,17.60
2022-10-28T05:40:25.652Z,17.60
2022-10-28T05:42:53.222Z,17.70
2022-10-28T05:45:21.954Z,17.70
2022-10-28T05:47:49.551Z,17.80
2022-10-28T05:50:19.449Z,17.80
2022-10-28T05:52:51.411Z,17.90
2022-10-28T05:55:19.994Z,18.00
2022-10-28T05:57:49.148Z,18.10
2022-10-28T06:00:18.615Z,18.10
2022-10-28T06:02:46.161Z,18.20
2022-10-28T06:05:15.475Z,18.30
2022-10-28T06:07:43.522Z,18.40
2022-10-28T06:10:12.025Z,18.50
2022-10-28T06:12:38.015Z,18.60
2022-10-28T06:15:05.819Z,18.60
2022-10-28T06:17:33.107Z,18.70
2022-10-28T06:20:03.362Z,18.80
2022-10-28T06:22:33.340Z,18.80
2022-10-28T06:25:01.795Z,18.90
2022-10-28T06:27:28.993Z,19.00
2022-10-28T06:29:56.276Z,19.20
2022-10-28T06:32:23.712Z,19.20
2022-10-28T06:34:51.201Z,19.30
2022-10-28T06:37:18.446Z,19.40
2022-10-28T06:39:49.917Z,19.50
2022-10-28T06:42:18.406Z,19.60
2022-10-28T06:44:46.188Z,19.70
2022-10-28T06:47:14.944Z,19.80
2022-10-28T06:49:42.172Z,19.90
2022-10-28T06:52:09.620Z,20.00
2022-10-28T06:54:36.711Z,20.10
2022-10-28T06:57:04.208Z,20.20
2022-10-28T06:59:31.717Z,20.30
2022-10-28T07:02:01.275Z,20.40
2022-10-28T07:04:28.602Z,20.60
2022-10-28T07:06:56.591Z,20.70
2022-10-28T07:09:24.453Z,20.70
2022-10-28T07:11:54.991Z,20.90
2022-10-28T07:14:22.873Z,21.00
2022-10-28T07:16:50.144Z,21.20
2022-10-28T07:19:21.669Z,21.20
2022-10-28T07:21:49.890Z,21.30
2022-10-28T07:24:17.126Z,21.40
2022-10-28T07:26:48.453Z,21.60
2022-10-28T07:29:16.620Z,21.70
2022-10-28T07:31:44.060Z,21.80
2022-10-28T07:34:11.412Z,21.90
2022-10-28T07:36:40.236Z,21.90
2022-10-28T07:39:07.959Z,21.90
2022-10-28T07:41:37.861Z,22.00
2022-10-28T07:44:05.078Z,22.10
2022-10-28T07:46:32.451Z,22.10
2022-10-28T07:49:00.025Z,22.10
2022-10-28T07:51:27.779Z,22.20
2022-10-28T07:53:57.808Z,22.20
2022-10-28T07:56:26.029Z,22.20
2022-10-28T07:58:53.276Z,22.30
2022-10-28T08:01:22.075Z,22.30
2022-10-28T08:03:51.603Z,22.30
2022-10-28T08:06:20.842Z,22.40
2022-10-28T08:08:53.592Z,22.40
2022-10-28T08:11:24.628Z,22.50
2022-10-28T08:13:53.288Z,22.60
2022-10-28T08:16:21.019Z,22.60
2022-10-28T08:18:48.451Z,22.60
2022-10-28T08:21:16.308Z,22.60
2022-10-28T08:23:47.085Z,22.70
2022-10-28T08:26:16.442Z,22.80
2022-10-28T08:28:44.177Z,22.80
2022-10-28T08:31:13.039Z,22.90
2022-10-28T08:33:44.630Z,23.10
2022-10-28T08:36:21.511Z,23.20
2022-10-28T08:38:48.912Z,23.30
2022-10-28T08:41:33.872Z,23.40
2022-10-28T08:44:22.432Z,23.60
2022-10-28T08:47:08.459Z,23.70
2022-10-28T08:49:42.450Z,23.90
2022-10-28T08:52:34.305Z,24.10
2022-10-28T08:55:04.724Z,24.20
2022-10-28T08:58:02.787Z,24.40
2022-10-28T09:00:32.872Z,24.50
2022-10-28T09:03:12.015Z,24.70
2022-10-28T09:05:41.344Z,24.80
2022-10-28T09:08:25.107Z,24.90
2022-10-28T09:11:29.548Z,25.00
2022-10-28T09:14:27.876Z,25.10
2022-10-28T09:17:20.460Z,25.30
2022-10-28T09:20:04.656Z,25.30
2022-10-28T09:22:43.105Z,25.50
2022-10-28T09:25:37.209Z,25.60
2022-10-28T09:28:19.847Z,25.80
2022-10-28T09:30:48.710Z,25.80
2022-10-28T09:33:38.699Z,26.00
2022-10-28T09:36:15.720Z,26.20
2022-10-28T09:38:44.962Z,26.30
2022-10-28T09:41:25.547Z,26.40
2022-10-28T09:44:20.505Z,26.40
2022-10-28T09:46:53.153Z,26.40
2022-10-28T09:49:26.612Z,26.30
2022-10-28T09:52:19.571Z,26.20
2022-10-28T09:54:53.927Z,26.10
2022-10-28T09:57:24.785Z,26.20
2022-10-28T09:59:53.862Z,26.30
2022-10-28T10:02:30.811Z,26.40
2022-10-28T10:05:06.038Z,26.30
2022-10-28T10:07:41.230Z,26.30
2022-10-28T10:10:27.759Z,26.20
2022-10-28T10:13:03.800Z,26.20
2022-10-28T10:15:48.942Z,26.30
2022-10-28T10:18:23.972Z,26.30
2022-10-28T10:20:58.866Z,26.40
2022-10-28T10:26:14.902Z,26.20
2022-10-28T10:28:44.709Z,26.30
2022-10-28T10:31:25.267Z,26.40
2022-10-28T10:33:56.121Z,26.60
2022-10-28T10:36:29.235Z,26.70
2022-10-28T10:38:59.138Z,26.80
2022-10-28T10:41:44.319Z,26.90
2022-10-28T10:44:20.911Z,27.10
2022-10-28T10:47:12.830Z,27.60
2022-10-28T10:49:43.016Z,28.00
2022-10-28T10:52:20.623Z,28.60
2022-10-28T10:55:05.100Z,29.10
2022-10-28T10:57:34.212Z,29.00
2022-10-28T11:00:01.784Z,29.00
2022-10-28T11:02:35.182Z,29.40
2022-10-28T11:05:06.463Z,29.30
2022-10-28T11:07:34.118Z,28.70
2022-10-28T11:10:02.145Z,28.80
2022-10-28T11:12:35.685Z,29.40
2022-10-28T11:15:17.179Z,29.20
2022-10-28T11:18:05.370Z,29.60
2022-10-28T11:20:47.272Z,29.90
2022-10-28T11:23:34.458Z,30.10
2022-10-28T11:26:08.360Z,30.50
2022-10-28T11:29:11.272Z,30.40
2022-10-28T11:31:52.717Z,30.70
2022-10-28T11:34:49.544Z,30.60
2022-10-28T11:37:54.313Z,30.60
2022-10-28T11:40:32.644Z,30.70
2022-10-28T11:43:21.350Z,30.70
2022-10-28T11:46:10.620Z,31.30
2022-10-28T11:49:00.470Z,31.20
2022-10-28T11:51:53.368Z,31.30
2022-10-28T11:54:33.279Z,31.50
2022-10-28T11:57:08.899Z,31.00
2022-10-28T12:00:03.614Z,31.00
2022-10-28T12:03:04.241Z,31.50
2022-10-28T12:06:03.983Z,31.50
2022-10-28T12:08:54.034Z,31.20
2022-10-28T12:11:50.945Z,31.10
2022-10-28T12:14:23.642Z,31.00
2022-10-28T12:17:13.277Z,30.80
2022-10-28T12:20:01.415Z,30.80
2022-10-28T12:22:51.364Z,30.40
2022-10-28T12:25:41.378Z,30.40
2022-10-28T12:28:20.250Z,30.50
2022-10-28T12:30:52.597Z,30.00
2022-10-28T12:33:27.577Z,29.50
2022-10-28T12:36:08.086Z,29.40
2022-10-28T12:38:53.998Z,29.20
2022-10-28T12:41:43.670Z,29.50
2022-10-28T12:44:25.871Z,29.40
2022-10-28T12:47:17.343Z,29.60
2022-10-28T12:49:55.232Z,29.60
2022-10-28T12:52:36.198Z,29.40
2022-10-28T12:55:42.142Z,28.90
2022-10-28T12:58:17.695Z,28.30
2022-10-28T13:00:50.413Z,27.60
2022-10-28T13:03:18.946Z,27.10
2022-10-28T13:06:17.020Z,26.90
2022-10-28T13:09:03.122Z,26.60
2022-10-28T13:12:02.275Z,26.30
2022-10-28T13:15:15.832Z,26.20
2022-10-28T13:18:08.823Z,26.10
2022-10-28T13:21:22.983Z,25.90
2022-10-28T13:24:31.356Z,25.70
2022-10-28T13:27:05.351Z,25.50
2022-10-28T13:29:36.241Z,25.40
2022-10-28T13:32:09.267Z,25.30
2022-10-28T13:34:43.379Z,25.20
2022-10-28T13:37:24.848Z,25.10
2022-10-28T13:39:57.285Z,25.20
2022-10-28T13:42:26.035Z,25.20
2022-10-28T13:44:54.520Z,25.30
2022-10-28T13:47:25.721Z,25.30
2022-10-28T13:50:12.930Z,25.30
2022-10-28T13:52:49.044Z,25.20
2022-10-28T13:55:42.101Z,25.20
2022-10-28T13:58:24.104Z,25.20
2022-10-28T14:00:53.485Z,25.20
2022-10-28T14:03:29.811Z,25.20
2022-10-28T14:06:01.031Z,25.10
2022-10-28T14:08:34.382Z,25.10
2022-10-28T14:11:12.086Z,25.20
2022-10-28T14:14:04.516Z,25.10
2022-10-28T14:16:39.299Z,25.00
2022-10-28T14:19:09.735Z,24.90
2022-10-28T14:22:06.097Z,24.80
2022-10-28T14:24:42.035Z,24.80
2022-10-28T14:27:09.413Z,24.70
2022-10-28T14:29:45.104Z,24.60
2022-10-28T14:32:31.210Z,24.60
2022-10-28T14:35:26.114Z,24.50
2022-10-28T14:38:27.196Z,24.60
2022-10-28T14:41:03.636Z,24.50
2022-10-28T14:43:33.933Z,24.50
2022-10-28T14:46:26.188Z,24.40
2022-10-28T14:48:59.285Z,24.30
2022-10-28T14:51:42.597Z,24.20
2022-10-28T14:54:16.254Z,24.20
2022-10-28T14:56:44.513Z,24.10
2022-10-28T14:59:36.911Z,24.00
2022-10-28T15:02:10.745Z,23.90
2022-10-28T15:04:40.816Z,23.90
2022-10-28T15:07:16.344Z,23.80
2022-10-28T15:09:45.444Z,23.80
2022-10-28T15:12:17.033Z,23.70
2022-10-28T15:14:50.816Z,23.60
2022-10-28T15:17:19.804Z,23.50
2022-10-28T15:19:49.540Z,23.40
2022-10-28T15:22:23.073Z,23.40
2022-10-28T15:24:55.327Z,23.40
2022-10-28T15:27:23.517Z,23.40
2022-10-28T15:29:51.452Z,23.40
2022-10-28T15:32:21.721Z,23.30
2022-10-28T15:34:49.495Z,23.30
2022-10-28T15:37:22.452Z,23.20
2022-10-28T15:39:52.406Z,23.10
2022-10-28T15:43:01.707Z,23.10
2022-10-28T15:45:31.995Z,23.00
2022-10-28T15:48:00.899Z,23.00
2022-10-28T15:50:31.676Z,22.90
2022-10-28T15:53:11.380Z,22.80
2022-10-28T15:56:06.798Z,22.70
2022-10-28T15:58:35.842Z,22.70
2022-10-28T16:01:03.871Z,22.60
2022-10-28T16:03:43.818Z,22.60
2022-10-28T16:06:39.016Z,22.50
2022-10-28T16:09:44.144Z,22.40
2022-10-28T16:12:17.883Z,22.30
2022-10-28T16:14:55.591Z,22.30
2022-10-28T16:17:29.490Z,22.30
2022-10-28T16:20:03.456Z,22.30
2022-10-28T16:22:34.920Z,22.30
2022-10-28T16:25:02.271Z,22.30
2022-10-28T16:27:32.401Z,22.20
2022-10-28T16:30:00.404Z,22.20
2022-10-28T16:32:49.167Z,22.20
2022-10-28T16:35:18.065Z,22.20
2022-10-28T16:37:49.372Z,22.20
2022-10-28T16:40:51.116Z,22.10
2022-10-28T16:43:06.043Z,22.10
2022-10-28T16:45:33.496Z,22.10
2022-10-28T16:48:00.737Z,22.00
2022-10-28T16:50:28.132Z,22.00
2022-10-28T16:52:56.773Z,22.00
2022-10-28T16:55:24.076Z,21.90
2022-10-28T16:57:51.460Z,21.90
2022-10-28T17:00:19.384Z,21.90
2022-10-28T17:02:50.913Z,21.90
2022-10-28T17:05:24.562Z,21.90
2022-10-28T17:07:56.219Z,21.90
2022-10-28T17:10:23.931Z,21.80
2022-10-28T17:12:51.853Z,21.80
2022-10-28T17:15:19.480Z,21.80
2022-10-28T17:17:50.774Z,21.70
2022-10-28T17:20:19.391Z,21.70
2022-10-28T17:22:46.808Z,21.70
2022-10-28T17:25:14.264Z,21.70
2022-10-28T17:27:42.306Z,21.70
2022-10-28T17:30:10.369Z,21.60
2022-10-28T17:32:37.787Z,21.60
2022-10-28T17:35:05.727Z,21.60
2022-10-28T17:37:33.823Z,21.60
2022-10-28T17:40:01.444Z,21.60
2022-10-28T17:42:29.257Z,21.50
2022-10-28T17:44:58.634Z,21.50
2022-10-28T17:47:25.852Z,21.50
2022-10-28T17:49:53.319Z,21.50
2022-10-28T17:52:21.606Z,21.50
2022-10-28T17:54:48.869Z,21.50
2022-10-28T17:57:16.310Z,21.50
2022-10-28T17:59:43.857Z,21.50
2022-10-28T18:02:15.051Z,21.50
2022-10-28T18:04:42.622Z,21.40
2022-10-28T18:07:10.000Z,21.40
2022-10-28T18:09:37.401Z,21.40
2022-10-28T18:12:06.777Z,21.30
2022-10-28T18:14:34.184Z,21.30
2022-10-28T18:17:01.698Z,21.20
2022-10-28T18:19:29.395Z,21.20
2022-10-28T18:21:56.800Z,21.20
2022-10-28T18:24:26.027Z,21.20
2022-10-28T18:26:55.078Z,21.10
2022-10-28T18:29:22.488Z,21.10
2022-10-28T18:31:49.699Z,21.10
2022-10-28T18:34:17.167Z,21.00
2022-10-28T18:36:44.794Z,21.00
2022-10-28T18:39:12.755Z,21.00
2022-10-28T18:41:42.819Z,21.00
2022-10-28T18:44:13.255Z,21.00
2022-10-28T18:46:41.507Z,21.00
2022-10-28T18:49:08.784Z,21.00
2022-10-28T18:51:36.500Z,21.00
2022-10-28T18:54:05.262Z,21.00
2022-10-28T18:56:34.412Z,21.00
2022-10-28T18:59:04.139Z,21.00
2022-10-28T19:01:32.578Z,21.00
2022-10-28T19:04:02.743Z,21.00
2022-10-28T19:06:33.313Z,21.00
2022-10-28T19:09:03.008Z,21.00
2022-10-28T19:11:31.702Z,20.90
2022-10-28T19:14:00.843Z,20.90
2022-10-28T19:16:30.299Z,20.90
2022-10-28T19:18:59.625Z,20.90
2022-10-28T19:21:28.020Z,20.80
2022-10-28T19:23:55.941Z,20.80
2022-10-28T19:26:23.537Z,20.80
2022-10-28T19:28:52.198Z,20.80
2022-10-28T19:31:21.732Z,20.80
2022-10-28T19:33:49.427Z,20.80
2022-10-28T19:36:21.107Z,20.70
2022-10-28T19:38:49.826Z,20.70
2022-10-28T19:41:19.590Z,20.70
2022-10-28T19:43:48.647Z,20.70
2022-10-28T19:46:20.799Z,20.70
2022-10-28T19:48:50.559Z,20.70
2022-10-28T19:51:23.539Z,20.60
2022-10-28T19:53:53.411Z,20.70
2022-10-28T19:56:21.522Z,20.60
2022-10-28T19:58:53.474Z,20.60
2022-10-28T20:01:23.360Z,20.60
2022-10-28T20:03:52.405Z,20.60
2022-10-28T20:06:21.930Z,20.60
2022-10-28T20:08:50.007Z,20.50
2022-10-28T20:11:26.006Z,20.50
2022-10-28T20:14:13.942Z,20.50
2022-10-28T20:16:43.130Z,20.40
2022-10-28T20:19:11.095Z,20.40
2022-10-28T20:21:39.627Z,20.40
2022-10-28T20:24:08.235Z,20.40
2022-10-28T20:26:37.221Z,20.40
2022-10-28T20:29:06.863Z,20.30
2022-10-28T20:31:42.113Z,20.30
2022-10-28T20:34:09.639Z,20.30
2022-10-28T20:36:44.398Z,20.30
2022-10-28T20:39:17.042Z,20.30
2022-10-28T20:41:46.452Z,20.30
2022-10-28T20:44:13.856Z,20.30
2022-10-28T20:46:41.962Z,20.30
2022-10-28T20:49:10.077Z,20.30
2022-10-28T20:51:37.781Z,20.30
2022-10-28T20:54:05.822Z,20.20
2022-10-28T20:56:36.388Z,20.20
2022-10-28T20:59:03.894Z,20.20
2022-10-28T21:01:39.005Z,20.20
2022-10-28T21:04:11.650Z,20.20
2022-10-28T21:06:39.708Z,20.10
2022-10-28T21:09:08.007Z,20.10
2022-10-28T21:11:35.920Z,20.10
2022-10-28T21:14:03.420Z,20.10
2022-10-28T21:16:31.002Z,20.10
2022-10-28T21:19:01.758Z,20.10
2022-10-28T21:21:30.195Z,20.10
2022-10-28T21:23:57.784Z,20.10
2022-10-28T21:26:26.795Z,20.00
2022-10-28T21:28:54.998Z,20.00
2022-10-28T21:31:22.575Z,20.00
2022-10-28T21:36:22.655Z,20.00
2022-10-28T21:38:56.092Z,20.00
2022-10-28T21:41:24.305Z,20.00
2022-10-28T21:43:53.395Z,20.00
2022-10-28T21:46:23.698Z,20.00
2022-10-28T21:48:52.317Z,20.00
2022-10-28T21:51:19.519Z,19.90
2022-10-28T21:53:46.864Z,19.90
2022-10-28T21:56:19.051Z,19.80
2022-10-28T21:58:48.523Z,19.80
2022-10-28T22:01:24.696Z,19.80
2022-10-28T22:03:54.972Z,19.80
2022-10-28T22:06:25.537Z,19.70
2022-10-28T22:08:54.192Z,19.70
2022-10-28T22:11:24.313Z,19.70
2022-10-28T22:13:59.759Z,19.60
2022-10-28T22:16:29.675Z,19.60
2022-10-28T22:18:59.234Z,19.60
2022-10-28T22:21:30.213Z,19.60
2022-10-28T22:23:57.840Z,19.60
2022-10-28T22:26:28.538Z,19.60
2022-10-28T22:28:56.231Z,19.50
2022-10-28T22:31:28.873Z,19.50
2022-10-28T22:33:57.377Z,19.50
2022-10-28T22:36:26.513Z,19.40
2022-10-28T22:38:54.481Z,19.40
2022-10-28T22:41:22.683Z,19.40
2022-10-28T22:43:52.686Z,19.30
2022-10-28T22:46:20.910Z,19.30
2022-10-28T22:48:48.916Z,19.30
2022-10-28T22:51:16.898Z,19.30
2022-10-28T22:53:44.594Z,19.30
2022-10-28T22:56:15.923Z,19.30
2022-10-28T22:58:43.552Z,19.20
2022-10-28T23:01:17.319Z,19.20
2022-10-28T23:03:47.426Z,19.20
2022-10-28T23:06:17.405Z,19.20
2022-10-28T23:08:45.141Z,19.20
2022-10-28T23:11:14.808Z,19.10
2022-10-28T23:13:45.423Z,19.10
2022-10-28T23:16:15.128Z,19.10
2022-10-28T23:18:43.335Z,19.10
2022-10-28T23:21:24.483Z,19.10
2022-10-28T23:23:56.476Z,19.10
2022-10-28T23:26:24.967Z,19.00
2022-10-28T23:28:54.674Z,19.00
2022-10-28T23:31:23.183Z,19.00
2022-10-28T23:33:51.064Z,19.00
2022-10-28T23:36:18.614Z,19.00
2022-10-28T23:38:46.723Z,19.00
2022-10-28T23:41:18.878Z,18.90
2022-10-28T23:43:47.322Z,18.90
2022-10-28T23:46:14.615Z,18.90
2022-10-28T23:48:42.765Z,18.90
2022-10-28T23:51:09.927Z,18.90
2022-10-28T23:53:37.393Z,18.90
2022-10-28T23:56:05.764Z,18.80
2022-10-28T23:58:33.010Z,18.80
